createdAt,value
2022-12-14T00:02:02.899Z,-4.10
2022-12-14T00:04:31.080Z,-4.20
2022-12-14T00:06:59.417Z,-4.30
2022-12-14T00:09:27.468Z,-4.30
2022-12-14T00:11:55.627Z,-4.30
2022-12-14T00:14:25.706Z,-4.30
2022-12-14T00:16:54.064Z,-4.30
2022-12-14T00:19:22.493Z,-4.20
2022-12-14T00:21:50.934Z,-4.30
2022-12-14T00:24:19.127Z,-4.20
2022-12-14T00:26:47.456Z,-4.40
2022-12-14T00:29:15.822Z,-4.40
2022-12-14T00:31:48.621Z,-4.50
2022-12-14T00:34:16.986Z,-4.40
2022-12-14T00:36:46.198Z,-4.40
2022-12-14T00:39:14.208Z,-4.40
2022-12-14T00:41:43.268Z,-4.40
2022-12-14T00:44:11.472Z,-4.40
2022-12-14T00:46:39.494Z,-4.40
2022-12-14T00:49:09.136Z,-4.30
2022-12-14T00:51:38.187Z,-4.30
2022-12-14T00:54:06.615Z,-4.30
2022-12-14T00:56:34.588Z,-4.40
2022-12-14T00:59:02.604Z,-4.40
2022-12-14T01:01:31.564Z,-4.30
2022-12-14T01:04:14.093Z,-4.40
2022-12-14T01:06:43.842Z,-4.30
2022-12-14T01:09:12.086Z,-4.40
2022-12-14T01:11:41.432Z,-4.30
2022-12-14T01:14:10.299Z,-4.30
2022-12-14T01:16:38.331Z,-4.30
2022-12-14T01:19:06.945Z,-4.30
2022-12-14T01:21:36.088Z,-4.20
2022-12-14T01:24:08.630Z,-4.20
2022-12-14T01:26:39.710Z,-4.20
2022-12-14T01:29:08.761Z,-4.20
2022-12-14T01:31:39.091Z,-4.30
2022-12-14T01:34:08.189Z,-4.20
2022-12-14T01:36:38.177Z,-4.30
2022-12-14T01:39:10.404Z,-4.20
2022-12-14T01:41:41.532Z,-4.20
2022-12-14T01:44:46.987Z,-4.30
2022-12-14T01:47:22.103Z,-4.20
2022-12-14T01:49:55.834Z,-4.20
2022-12-14T01:52:29.429Z,-4.20
2022-12-14T01:55:03.273Z,-4.30
2022-12-14T01:57:40.083Z,-4.30
2022-12-14T02:00:12.685Z,-4.30
2022-12-14T02:02:45.055Z,-4.40
2022-12-14T02:05:14.845Z,-4.30
2022-12-14T02:07:48.937Z,-4.20
2022-12-14T02:10:19.627Z,-4.20
2022-12-14T02:12:52.321Z,-4.20
2022-12-14T02:15:21.120Z,-4.20
2022-12-14T02:17:50.390Z,-4.30
2022-12-14T02:20:18.864Z,-4.20
2022-12-14T02:23:19.519Z,-4.20
2022-12-14T02:26:14.822Z,-4.20
2022-12-14T02:29:10.721Z,-4.10
2022-12-14T02:31:50.916Z,-4.10
2022-12-14T02:34:30.503Z,-4.10
2022-12-14T02:37:04.392Z,-4.10
2022-12-14T02:39:42.366Z,-4.10
2022-12-14T02:42:15.315Z,-4.10
2022-12-14T02:44:55.849Z,-4.10
2022-12-14T02:47:28.136Z,-4.10
2022-12-14T02:50:03.153Z,-4.20
2022-12-14T02:52:40.781Z,-4.10
2022-12-14T02:55:16.443Z,-4.00
2022-12-14T02:57:50.683Z,-4.00
2022-12-14T03:00:20.723Z,-4.00
2022-12-14T03:02:50.265Z,-3.90
2022-12-14T03:05:18.641Z,-4.00
2022-12-14T03:07:49.785Z,-3.90
2022-12-14T03:10:29.103Z,-3.90
2022-12-14T03:13:02.667Z,-3.90
2022-12-14T03:15:34.899Z,-3.80
2022-12-14T03:18:06.731Z,-3.80
2022-12-14T03:20:36.930Z,-3.80
2022-12-14T03:23:10.059Z,-3.70
2022-12-14T03:25:44.145Z,-3.70
2022-12-14T03:28:17.671Z,-3.70
2022-12-14T03:31:01.213Z,-3.70
2022-12-14T03:33:32.547Z,-3.70
2022-12-14T03:36:06.144Z,-3.70
2022-12-14T03:38:40.096Z,-3.70
2022-12-14T03:41:17.528Z,-3.70
2022-12-14T03:44:01.025Z,-3.60
2022-12-14T03:46:38.683Z,-3.70
2022-12-14T03:49:17.652Z,-3.70
2022-12-14T03:51:56.443Z,-3.70
2022-12-14T03:54:30.499Z,-3.70
2022-12-14T03:57:04.407Z,-3.70
2022-12-14T03:59:38.696Z,-3.60
2022-12-14T04:02:13.199Z,-3.60
2022-12-14T04:04:46.848Z,-3.60
2022-12-14T04:07:24.134Z,-3.60
2022-12-14T04:09:56.431Z,-3.60
2022-12-14T04:13:01.822Z,-3.50
2022-12-14T04:15:53.426Z,-3.50
2022-12-14T04:18:45.501Z,-3.60
2022-12-14T04:21:20.467Z,-3.60
2022-12-14T04:24:25.733Z,-3.50
2022-12-14T04:26:57.735Z,-3.50
2022-12-14T04:29:47.878Z,-3.60
2022-12-14T04:32:21.671Z,-3.60
2022-12-14T04:34:55.971Z,-3.40
2022-12-14T04:37:28.664Z,-3.40
2022-12-14T04:40:00.499Z,-3.40
2022-12-14T04:42:34.676Z,-3.50
2022-12-14T04:45:08.413Z,-3.40
2022-12-14T04:47:42.507Z,-3.40
2022-12-14T04:50:18.720Z,-3.40
2022-12-14T04:52:50.882Z,-3.40
2022-12-14T04:55:27.093Z,-3.40
2022-12-14T04:58:00.187Z,-3.40
2022-12-14T05:00:31.132Z,-3.40
2022-12-14T05:03:19.655Z,-3.30
2022-12-14T05:05:59.644Z,-3.30
2022-12-14T05:08:44.247Z,-3.40
2022-12-14T05:11:52.082Z,-3.30
2022-12-14T05:14:12.567Z,-3.30
2022-12-14T05:16:40.716Z,-3.20
2022-12-14T05:19:09.998Z,-3.20
2022-12-14T05:21:49.184Z,-3.20
2022-12-14T05:24:18.049Z,-3.20
2022-12-14T05:26:46.891Z,-3.20
2022-12-14T05:29:15.675Z,-3.20
2022-12-14T05:31:49.337Z,-3.20
2022-12-14T05:34:18.211Z,-3.20
2022-12-14T05:36:47.615Z,-3.20
2022-12-14T05:39:16.453Z,-3.20
2022-12-14T05:41:45.136Z,-3.30
2022-12-14T05:44:13.238Z,-3.30
2022-12-14T05:46:41.680Z,-3.30
2022-12-14T05:49:09.906Z,-3.30
2022-12-14T05:51:38.813Z,-3.20
2022-12-14T05:54:08.595Z,-3.20
2022-12-14T05:56:37.062Z,-3.20
2022-12-14T05:59:05.090Z,-3.20
2022-12-14T06:01:33.712Z,-3.10
2022-12-14T06:04:02.013Z,-3.10
2022-12-14T06:06:30.317Z,-3.10
2022-12-14T06:08:58.787Z,-3.10
2022-12-14T06:11:28.523Z,-3.10
2022-12-14T06:13:56.921Z,-3.10
2022-12-14T06:16:28.011Z,-3.10
2022-12-14T06:18:58.280Z,-3.10
2022-12-14T06:21:30.138Z,-3.10
2022-12-14T06:23:59.356Z,-3.10
2022-12-14T06:26:29.849Z,-3.10
2022-12-14T06:28:58.938Z,-3.10
2022-12-14T06:31:29.516Z,-3.20
2022-12-14T06:33:59.511Z,-3.00
2022-12-14T06:36:29.299Z,-3.00
2022-12-14T06:38:59.175Z,-3.10
2022-12-14T06:41:28.557Z,-3.10
2022-12-14T06:43:57.098Z,-3.10
2022-12-14T06:46:26.230Z,-3.10
2022-12-14T06:48:55.994Z,-3.00
2022-12-14T06:51:25.742Z,-3.00
2022-12-14T06:53:56.497Z,-3.10
2022-12-14T06:56:25.996Z,-3.10
2022-12-14T06:58:56.833Z,-3.00
2022-12-14T07:01:26.456Z,-3.00
2022-12-14T07:03:56.243Z,-3.00
2022-12-14T07:06:25.534Z,-3.00
2022-12-14T07:08:55.642Z,-3.00
2022-12-14T07:11:24.836Z,-3.00
2022-12-14T07:13:55.457Z,-2.90
2022-12-14T07:16:25.145Z,-2.90
2022-12-14T07:18:54.768Z,-2.90
2022-12-14T07:21:24.887Z,-2.90
2022-12-14T07:23:53.623Z,-2.90
2022-12-14T07:26:24.340Z,-2.80
2022-12-14T07:28:53.106Z,-2.80
2022-12-14T07:31:24.866Z,-2.80
2022-12-14T07:33:54.131Z,-2.90
2022-12-14T07:36:23.690Z,-2.80
2022-12-14T07:38:53.154Z,-2.90
2022-12-14T07:41:23.515Z,-2.90
2022-12-14T07:43:53.245Z,-2.90
2022-12-14T07:46:24.425Z,-2.80
2022-12-14T07:48:54.291Z,-2.80
2022-12-14T07:51:24.937Z,-2.80
2022-12-14T07:53:53.609Z,-2.80
2022-12-14T07:56:23.474Z,-2.70
2022-12-14T07:58:53.380Z,-2.70
2022-12-14T08:01:24.371Z,-2.70
2022-12-14T08:03:55.363Z,-2.60
2022-12-14T08:06:26.303Z,-2.60
2022-12-14T08:08:56.493Z,-2.60
2022-12-14T08:11:25.916Z,-2.60
2022-12-14T08:13:54.539Z,-2.50
2022-12-14T08:16:25.264Z,-2.50
2022-12-14T08:18:54.758Z,-2.50
2022-12-14T08:21:24.518Z,-2.50
2022-12-14T08:23:54.776Z,-2.40
2022-12-14T08:26:24.016Z,-2.40
2022-12-14T08:28:54.757Z,-2.40
2022-12-14T08:31:26.251Z,-2.30
2022-12-14T08:33:54.709Z,-2.30
2022-12-14T08:36:24.418Z,-2.20
2022-12-14T08:38:55.896Z,-2.30
2022-12-14T08:41:24.909Z,-2.30
2022-12-14T08:43:57.959Z,-2.20
2022-12-14T08:46:29.386Z,-2.10
2022-12-14T08:48:58.065Z,-2.00
2022-12-14T08:51:27.284Z,-2.00
2022-12-14T08:53:56.706Z,-2.00
2022-12-14T08:56:28.047Z,-2.00
2022-12-14T08:58:56.732Z,-1.90
2022-12-14T09:01:33.499Z,-1.90
2022-12-14T09:04:08.283Z,-1.90
2022-12-14T09:06:40.169Z,-1.90
2022-12-14T09:09:16.171Z,-2.00
2022-12-14T09:11:46.283Z,-1.90
2022-12-14T09:14:14.829Z,-1.90
2022-12-14T09:16:44.268Z,-1.90
2022-12-14T09:19:13.387Z,-1.90
2022-12-14T09:21:41.801Z,-2.00
2022-12-14T09:24:10.655Z,-1.80
2022-12-14T09:26:39.225Z,-1.90
2022-12-14T09:29:07.731Z,-1.90
2022-12-14T09:31:35.920Z,-1.90
2022-12-14T09:34:05.959Z,-1.80
2022-12-14T09:36:34.651Z,-1.70
2022-12-14T09:39:03.941Z,-1.70
2022-12-14T09:41:51.761Z,-1.70
2022-12-14T09:44:29.354Z,-1.80
2022-12-14T09:47:03.670Z,-1.80
2022-12-14T09:49:35.364Z,-1.70
2022-12-14T09:52:06.265Z,-1.70
2022-12-14T09:54:38.193Z,-1.80
2022-12-14T09:57:11.888Z,-1.70
2022-12-14T09:59:40.085Z,-1.70
2022-12-14T10:02:31.307Z,-1.70
2022-12-14T10:05:18.824Z,-1.70
2022-12-14T10:07:57.393Z,-1.70
2022-12-14T10:10:30.859Z,-1.70
2022-12-14T10:13:07.954Z,-1.70
2022-12-14T10:15:43.359Z,-1.70
2022-12-14T10:18:57.436Z,-1.60
2022-12-14T10:21:17.030Z,-1.50
2022-12-14T10:23:53.483Z,-1.40
2022-12-14T10:26:25.090Z,-1.40
2022-12-14T10:29:01.650Z,-1.30
2022-12-14T10:31:37.751Z,-1.30
2022-12-14T10:34:18.999Z,-1.20
2022-12-14T10:36:55.727Z,-1.10
2022-12-14T10:39:32.514Z,-1.00
2022-12-14T10:42:09.984Z,-0.90
2022-12-14T10:44:50.285Z,-1.00
2022-12-14T10:47:27.639Z,-0.90
2022-12-14T10:50:04.409Z,-1.00
2022-12-14T10:52:39.212Z,-1.20
2022-12-14T10:55:15.767Z,-1.10
2022-12-14T10:57:43.807Z,-1.20
2022-12-14T11:00:22.643Z,-1.20
2022-12-14T11:02:55.712Z,-1.20
2022-12-14T11:05:36.392Z,-1.20
2022-12-14T11:08:07.942Z,-1.10
2022-12-14T11:10:39.557Z,-1.10
2022-12-14T11:13:16.277Z,-1.00
2022-12-14T11:15:47.208Z,-1.00
2022-12-14T11:18:31.345Z,-1.00
2022-12-14T11:21:01.786Z,-0.90
2022-12-14T11:23:36.601Z,-1.00
2022-12-14T11:26:07.807Z,-1.10
2022-12-14T11:28:39.863Z,-1.30
2022-12-14T11:31:14.171Z,-1.20
2022-12-14T11:33:50.016Z,-1.20
2022-12-14T11:36:26.330Z,-1.10
2022-12-14T11:39:01.233Z,-1.10
2022-12-14T11:41:33.731Z,-1.10
2022-12-14T11:44:05.736Z,-1.00
2022-12-14T11:46:46.295Z,-1.00
2022-12-14T11:49:27.360Z,-0.90
2022-12-14T11:52:13.995Z,-0.80
2022-12-14T11:54:49.556Z,-0.90
2022-12-14T11:57:31.815Z,-0.90
2022-12-14T12:00:02.729Z,-0.90
2022-12-14T12:02:36.280Z,-0.90
2022-12-14T12:05:08.848Z,-1.00
2022-12-14T12:07:41.050Z,-1.00
2022-12-14T12:10:22.249Z,-1.00
2022-12-14T12:12:54.441Z,-0.90
2022-12-14T12:15:27.138Z,-0.90
2022-12-14T12:17:59.255Z,-0.90
2022-12-14T12:20:36.279Z,-0.80
2022-12-14T12:23:09.042Z,-0.80
2022-12-14T12:25:41.408Z,-0.80
2022-12-14T12:28:16.799Z,-0.80
2022-12-14T12:30:50.956Z,-0.80
2022-12-14T12:33:29.908Z,-0.80
2022-12-14T12:36:02.950Z,-0.80
2022-12-14T12:38:49.638Z,-0.80
2022-12-14T12:41:36.891Z,-0.80
2022-12-14T12:44:18.325Z,-0.80
2022-12-14T12:47:22.777Z,-0.80
2022-12-14T12:49:43.508Z,-0.80
2022-12-14T12:52:21.876Z,-0.80
2022-12-14T12:54:56.729Z,-0.80
2022-12-14T12:57:29.656Z,-0.80
2022-12-14T12:59:59.638Z,-0.80
2022-12-14T13:02:32.678Z,-0.70
2022-12-14T13:05:29.152Z,-0.70
2022-12-14T13:07:57.548Z,-0.80
2022-12-14T13:10:30.244Z,-0.90
2022-12-14T13:13:04.502Z,-0.90
2022-12-14T13:15:39.472Z,-0.90
2022-12-14T13:18:41.109Z,-0.80
2022-12-14T13:21:20.734Z,-0.80
2022-12-14T13:23:49.448Z,-0.70
2022-12-14T13:26:56.529Z,-0.70
2022-12-14T13:29:39.324Z,-0.80
2022-12-14T13:32:18.960Z,-0.80
2022-12-14T13:34:57.791Z,-0.80
2022-12-14T13:37:44.498Z,-0.70
2022-12-14T13:40:37.435Z,-0.70
2022-12-14T13:43:21.831Z,-0.70
2022-12-14T13:45:51.579Z,-0.70
2022-12-14T13:48:24.632Z,-0.60
2022-12-14T13:51:01.866Z,-0.70
2022-12-14T13:53:36.662Z,-0.70
2022-12-14T13:56:06.121Z,-0.60
2022-12-14T13:58:40.032Z,-0.60
2022-12-14T14:01:14.851Z,-0.60
2022-12-14T14:03:52.545Z,-0.60
2022-12-14T14:06:38.240Z,-0.60
2022-12-14T14:09:55.179Z,-0.60
2022-12-14T14:12:38.967Z,-0.60
2022-12-14T14:15:32.926Z,-0.60
2022-12-14T14:18:15.116Z,-0.50
2022-12-14T14:20:45.646Z,-0.50
2022-12-14T14:23:32.127Z,-0.50
2022-12-14T14:26:22.421Z,-0.50
2022-12-14T14:29:24.920Z,-0.40
2022-12-14T14:31:55.961Z,-0.50
2022-12-14T14:34:45.961Z,-0.50
2022-12-14T14:37:26.690Z,-0.40
2022-12-14T14:40:22.159Z,-0.40
2022-12-14T14:43:03.034Z,-0.40
2022-12-14T14:45:41.813Z,-0.40
2022-12-14T14:48:23.988Z,-0.40
2022-12-14T14:51:04.399Z,-0.40
2022-12-14T14:53:33.974Z,-0.40
2022-12-14T14:56:33.450Z,-0.40
2022-12-14T14:59:38.503Z,-0.40
2022-12-14T15:02:26.401Z,-0.30
2022-12-14T15:04:57.149Z,-0.40
2022-12-14T15:07:30.949Z,-0.40
2022-12-14T15:10:08.325Z,-0.30
2022-12-14T15:12:42.723Z,-0.40
2022-12-14T15:15:20.359Z,-0.40
2022-12-14T15:17:49.763Z,-0.30
2022-12-14T15:20:25.421Z,-0.30
2022-12-14T15:22:56.743Z,-0.30
2022-12-14T15:25:28.568Z,-0.40
2022-12-14T15:27:59.358Z,-0.30
2022-12-14T15:30:31.254Z,-0.30
2022-12-14T15:33:03.250Z,-0.30
2022-12-14T15:35:34.283Z,-0.40
2022-12-14T15:38:06.219Z,-0.30
2022-12-14T15:40:35.684Z,-0.30
2022-12-14T15:43:16.730Z,-0.30
2022-12-14T15:45:47.973Z,-0.30
2022-12-14T15:48:17.899Z,-0.30
2022-12-14T15:50:47.480Z,-0.40
2022-12-14T15:53:28.398Z,-0.30
2022-12-14T15:56:02.912Z,-0.30
2022-12-14T15:58:35.752Z,-0.40
2022-12-14T16:01:11.610Z,-0.30
2022-12-14T16:03:43.669Z,-0.40
2022-12-14T16:06:13.834Z,-0.40
2022-12-14T16:08:49.586Z,-0.40
2022-12-14T16:11:24.626Z,-0.40
2022-12-14T16:13:53.626Z,-0.30
2022-12-14T16:16:23.289Z,-0.40
2022-12-14T16:18:52.425Z,-0.30
2022-12-14T16:21:30.952Z,-0.30
2022-12-14T16:24:14.600Z,-0.30
2022-12-14T16:30:59.794Z,-0.30
2022-12-14T16:33:29.622Z,-0.30
2022-12-14T16:36:03.978Z,-0.30
2022-12-14T16:38:36.094Z,-0.30
2022-12-14T16:41:06.389Z,-0.30
2022-12-14T16:43:36.646Z,-0.20
2022-12-14T16:46:18.645Z,-0.20
2022-12-14T16:49:09.633Z,-0.20
2022-12-14T16:52:06.309Z,-0.30
2022-12-14T16:54:33.333Z,-0.20
2022-12-14T16:57:06.116Z,-0.20
2022-12-14T16:59:41.888Z,-0.20
2022-12-14T17:02:30.474Z,-0.20
2022-12-14T17:05:01.652Z,-0.20
2022-12-14T17:07:33.128Z,-0.20
2022-12-14T17:10:03.048Z,-0.20
2022-12-14T17:12:31.339Z,-0.20
2022-12-14T17:15:00.021Z,-0.20
2022-12-14T17:17:34.046Z,-0.20
2022-12-14T17:20:13.676Z,-0.20
2022-12-14T17:22:49.497Z,-0.20
2022-12-14T17:25:19.120Z,-0.20
2022-12-14T17:27:49.422Z,-0.20
2022-12-14T17:30:19.296Z,-0.10
2022-12-14T17:32:48.471Z,-0.10
2022-12-14T17:35:18.447Z,-0.10
2022-12-14T17:37:49.513Z,-0.10
2022-12-14T17:40:18.175Z,-0.10
2022-12-14T17:42:52.712Z,-0.10
2022-12-14T17:45:24.568Z,-0.10
2022-12-14T17:47:55.340Z,-0.10
2022-12-14T17:50:25.024Z,-0.20
2022-12-14T17:52:54.648Z,-0.10
2022-12-14T17:55:25.783Z,-0.10
2022-12-14T17:57:54.612Z,-0.10
2022-12-14T18:00:43.779Z,-0.10
2022-12-14T18:03:13.862Z,-0.10
2022-12-14T18:05:48.870Z,-0.10
2022-12-14T18:08:19.396Z,-0.10
2022-12-14T18:10:50.007Z,-0.20
2022-12-14T18:13:18.320Z,-0.10
2022-12-14T18:15:49.715Z,-0.10
2022-12-14T18:18:20.398Z,-0.10
2022-12-14T18:20:52.385Z,-0.10
2022-12-14T18:23:23.208Z,-0.10
2022-12-14T18:25:55.218Z,-0.10
2022-12-14T18:28:24.168Z,-0.10
2022-12-14T18:30:56.675Z,-0.10
2022-12-14T18:33:27.657Z,-0.10
2022-12-14T18:35:57.777Z,-0.10
2022-12-14T18:38:27.786Z,-0.10
2022-12-14T18:41:00.275Z,-0.10
2022-12-14T18:43:30.204Z,-0.10
2022-12-14T18:46:00.188Z,-0.10
2022-12-14T18:48:29.040Z,-0.10
2022-12-14T18:50:57.502Z,-0.10
2022-12-14T18:53:28.470Z,-0.10
2022-12-14T18:55:57.518Z,-0.10
2022-12-14T18:58:28.104Z,-0.10
2022-12-14T19:00:59.366Z,0.00
2022-12-14T19:03:31.962Z,-0.10
2022-12-14T19:06:42.943Z,-0.10
2022-12-14T19:08:57.872Z,-0.10
2022-12-14T19:11:32.448Z,0.00
2022-12-14T19:14:01.715Z,0.00
2022-12-14T19:16:30.305Z,-0.10
2022-12-14T19:18:58.500Z,0.00
2022-12-14T19:21:26.711Z,-0.10
2022-12-14T19:23:56.741Z,0.00
2022-12-14T19:26:26.357Z,0.00
2022-12-14T19:28:54.575Z,-0.10
2022-12-14T19:31:22.682Z,0.00
2022-12-14T19:33:50.762Z,-0.10
2022-12-14T19:36:19.031Z,-0.10
2022-12-14T19:38:49.086Z,-0.10
2022-12-14T19:41:20.428Z,0.00
2022-12-14T19:43:49.145Z,-0.10
2022-12-14T19:46:17.937Z,0.00
2022-12-14T19:48:46.580Z,0.00
2022-12-14T19:51:15.286Z,0.00
2022-12-14T19:53:44.569Z,0.00
2022-12-14T19:56:15.302Z,0.00
2022-12-14T19:58:46.337Z,0.00
2022-12-14T20:01:16.863Z,0.00
2022-12-14T20:03:45.975Z,0.00
2022-12-14T20:06:14.342Z,0.00
2022-12-14T20:08:42.609Z,0.00
2022-12-14T20:11:12.354Z,0.00
2022-12-14T20:13:41.314Z,0.00
2022-12-14T20:16:17.285Z,0.00
2022-12-14T20:19:06.665Z,0.00
2022-12-14T20:21:35.872Z,0.00
2022-12-14T20:24:04.312Z,0.00
2022-12-14T20:26:32.432Z,0.00
2022-12-14T20:29:04.966Z,0.00
2022-12-14T20:31:34.547Z,0.00
2022-12-14T20:34:04.134Z,0.00
2022-12-14T20:36:33.029Z,0.00
2022-12-14T20:39:02.425Z,0.10
2022-12-14T20:41:32.225Z,0.10
2022-12-14T20:44:02.065Z,0.00
2022-12-14T20:46:33.448Z,0.10
2022-12-14T20:49:04.789Z,0.10
2022-12-14T20:51:35.877Z,0.10
2022-12-14T20:54:05.007Z,0.10
2022-12-14T20:56:35.422Z,0.10
2022-12-14T20:59:05.699Z,0.10
2022-12-14T21:01:34.077Z,0.10
2022-12-14T21:04:04.477Z,0.10
2022-12-14T21:06:33.697Z,0.10
2022-12-14T21:09:09.779Z,0.10
2022-12-14T21:11:57.639Z,0.10
2022-12-14T21:14:27.707Z,0.10
2022-12-14T21:16:56.551Z,0.10
2022-12-14T21:19:26.549Z,0.10
2022-12-14T21:21:55.037Z,0.10
2022-12-14T21:27:17.436Z,0.10
2022-12-14T21:29:45.732Z,0.10
2022-12-14T21:32:14.881Z,0.10
2022-12-14T21:34:44.503Z,0.00
2022-12-14T21:37:13.060Z,0.10
2022-12-14T21:39:41.109Z,0.10
2022-12-14T21:42:13.011Z,0.00
2022-12-14T21:44:42.315Z,0.00
2022-12-14T21:47:12.702Z,0.00
2022-12-14T21:49:42.314Z,0.00
2022-12-14T21:52:13.845Z,0.00
2022-12-14T21:54:42.473Z,-0.10
2022-12-14T21:57:31.875Z,0.00
2022-12-14T21:59:59.966Z,-0.10
2022-12-14T22:02:28.355Z,-0.10
2022-12-14T22:04:57.385Z,-0.10
2022-12-14T22:07:31.634Z,-0.10
2022-12-14T22:10:01.793Z,-0.10
2022-12-14T22:12:29.953Z,-0.10
2022-12-14T22:14:58.008Z,-0.20
2022-12-14T22:17:26.145Z,-0.20
2022-12-14T22:19:55.714Z,-0.20
2022-12-14T22:22:24.155Z,-0.20
2022-12-14T22:24:54.755Z,-0.20
2022-12-14T22:27:22.791Z,-0.20
2022-12-14T22:29:51.207Z,-0.20
2022-12-14T22:32:19.448Z,-0.20
2022-12-14T22:34:47.495Z,-0.20
2022-12-14T22:37:16.559Z,-0.20
2022-12-14T22:39:48.038Z,-0.20
2022-12-14T22:42:18.214Z,-0.30
2022-12-14T22:44:46.392Z,-0.30
2022-12-14T22:47:14.511Z,-0.30
2022-12-14T22:49:43.313Z,-0.30
2022-12-14T22:52:11.358Z,-0.30
2022-12-14T22:54:40.739Z,-0.30
2022-12-14T22:57:14.840Z,-0.40
2022-12-14T22:59:49.611Z,-0.40
2022-12-14T23:02:18.060Z,-0.40
2022-12-14T23:04:46.310Z,-0.30
2022-12-14T23:07:18.243Z,-0.40
2022-12-14T23:10:04.013Z,-0.40
2022-12-14T23:12:50.239Z,-0.40
2022-12-14T23:15:36.915Z,-0.40
2022-12-14T23:18:25.223Z,-0.40
2022-12-14T23:21:10.950Z,-0.40
2022-12-14T23:23:56.774Z,-0.40
2022-12-14T23:26:42.874Z,-0.40
2022-12-14T23:29:28.518Z,-0.40
2022-12-14T23:32:16.752Z,-0.40
2022-12-14T23:35:02.463Z,-0.40
2022-12-14T23:37:48.296Z,-0.40
2022-12-14T23:40:34.091Z,-0.40
2022-12-14T23:43:27.492Z,-0.40
2022-12-14T23:46:13.169Z,-0.40
2022-12-14T23:48:59.873Z,-0.40
2022-12-14T23:51:45.578Z,-0.50
2022-12-14T23:54:31.252Z,-0.50
2022-12-14T23:57:17.204Z,-0.50
